LIRP Airport Information

Runway Information
Runway 04L Length 9160 ft width 141 ft
Elevation 2 ft Threshold 979 ft Heading 37
Runway 22R Length 9160 ft Width 141 ft
Elevation 6 ft Threshold 0 ft Heading 217
Runway 04R Length 9820 ft width 148 ft
Elevation 3 ft Threshold 490 ft Heading 37
Runway 22L Length 9820 ft Width 148 ft
Elevation 6 ft Threshold 843 ft Heading 217
Airport Frequencies
Type APP Name APP Frequency 122.1 MHZ
Type GND Name GND Frequency 121.6 MHZ
Type TWR Name TWR Frequency 119.1 MHZ
Airport Navaids
Type TACAN Name Pisa Frequency 108300 KHZ
Type VOR-DME Name Pisa Frequency 112100 KHZ
Type NDB Name Pisa Frequency 379 KHZ
Airport Weather Information & NOTAM
ADDS - METARS form results

(0155 UTC 22 November 2019)
Data provider http://aviationweather.gov/metar/data/
 
METAR text: LIRP 220145Z 10011KT 9999 FEW030 BKN060 12/09 Q1012 NOSIG
Conditions at: LIRP (PISA (CIV/IT-AFB, IT) observed 0145 UTC 22 November 2019
Temperature: 12.0°C (54°F)
Dewpoint: 9.0°C (48°F) [RH = 82%]
Pressure (altimeter): 29.88 inches Hg (1012.0 mb)
Winds: from the E (100 degrees) at 13 MPH (11 knots; 5.7 m/s)
Visibility: 6 or more miles (10+ km)
Ceiling: 6000 feet AGL
Clouds: few clouds at 3000 feet AGL
broken clouds at 6000 feet AGL
Weather: no significant weather observed at this time

METAR text: LIRP 220115Z 10012KT 9999 FEW030 BKN060 12/09 Q1012 NOSIG
Conditions at: LIRP (PISA (CIV/IT-AFB, IT) observed 0115 UTC 22 November 2019
Temperature: 12.0°C (54°F)
Dewpoint: 9.0°C (48°F) [RH = 82%]
Pressure (altimeter): 29.88 inches Hg (1012.0 mb)
Winds: from the E (100 degrees) at 14 MPH (12 knots; 6.2 m/s)
Visibility: 6 or more miles (10+ km)
Ceiling: 6000 feet AGL
Clouds: few clouds at 3000 feet AGL
broken clouds at 6000 feet AGL
Weather: no significant weather observed at this time